createdAt,value
2023-03-26T00:03:07.108Z,7.40
2023-03-26T00:06:29.564Z,7.40
2023-03-26T00:09:51.164Z,7.40
2023-03-26T00:13:12.775Z,7.40
2023-03-26T00:16:35.820Z,7.30
2023-03-26T00:19:57.479Z,7.30
2023-03-26T00:23:19.173Z,7.30
2023-03-26T00:26:40.912Z,7.30
2023-03-26T00:30:02.612Z,7.40
2023-03-26T00:33:25.689Z,7.50
2023-03-26T00:36:47.510Z,7.50
2023-03-26T00:40:11.627Z,7.50
2023-03-26T00:43:34.448Z,7.50
2023-03-26T00:46:56.074Z,7.40
2023-03-26T00:50:19.083Z,7.50
2023-03-26T00:53:41.025Z,7.40
2023-03-26T00:57:02.693Z,7.40
2023-03-26T01:00:29.194Z,7.50
2023-03-26T01:04:06.887Z,7.50
2023-03-26T01:07:30.956Z,7.50
2023-03-26T01:10:52.862Z,7.50
2023-03-26T01:14:16.290Z,7.50
2023-03-26T01:17:38.113Z,7.50
2023-03-26T01:21:01.062Z,7.50
2023-03-26T01:24:24.097Z,7.50
2023-03-26T01:27:47.141Z,7.40
2023-03-26T01:31:12.651Z,7.40
2023-03-26T01:34:39.477Z,7.50
2023-03-26T01:38:09.904Z,7.50
2023-03-26T01:41:37.284Z,7.50
2023-03-26T01:45:03.291Z,7.50
2023-03-26T01:48:28.881Z,7.40
2023-03-26T01:51:50.799Z,7.50
2023-03-26T01:55:12.484Z,7.60
2023-03-26T01:58:39.342Z,7.50
2023-03-26T02:02:06.841Z,7.50
2023-03-26T02:05:31.635Z,7.50
2023-03-26T02:09:05.540Z,7.50
2023-03-26T02:12:27.779Z,7.50
2023-03-26T02:15:58.053Z,7.50
2023-03-26T02:19:19.753Z,7.40
2023-03-26T02:22:42.166Z,7.40
2023-03-26T02:26:06.096Z,7.30
2023-03-26T02:29:27.714Z,7.30
2023-03-26T02:32:50.900Z,7.30
2023-03-26T02:36:12.664Z,7.30
2023-03-26T02:39:34.670Z,7.30
2023-03-26T02:42:56.260Z,7.20
2023-03-26T02:46:17.904Z,7.20
2023-03-26T02:49:40.916Z,7.20
2023-03-26T02:53:02.548Z,7.20
2023-03-26T02:56:24.427Z,7.20
2023-03-26T02:59:46.039Z,7.20
2023-03-26T03:03:07.890Z,7.30
2023-03-26T03:06:31.171Z,7.30
2023-03-26T03:09:53.267Z,7.40
2023-03-26T03:13:15.200Z,7.50
2023-03-26T03:16:37.248Z,7.50
2023-03-26T03:19:59.158Z,7.50
2023-03-26T03:23:23.237Z,7.50
2023-03-26T03:26:45.088Z,7.60
2023-03-26T03:30:08.780Z,7.60
2023-03-26T03:33:30.594Z,7.70
2023-03-26T03:36:52.396Z,7.70
2023-03-26T03:40:15.513Z,7.70
2023-03-26T03:43:37.211Z,7.70
2023-03-26T03:46:58.794Z,7.70
2023-03-26T03:50:20.552Z,7.70
2023-03-26T03:53:42.328Z,7.60
2023-03-26T03:57:05.506Z,7.70
2023-03-26T04:00:27.460Z,7.70
2023-03-26T04:03:50.762Z,7.70
2023-03-26T04:07:12.503Z,7.70
2023-03-26T04:10:34.123Z,7.70
2023-03-26T04:13:57.091Z,7.70
2023-03-26T04:17:18.703Z,7.70
2023-03-26T04:20:41.430Z,7.70
2023-03-26T04:24:03.106Z,7.60
2023-03-26T04:27:26.741Z,7.60
2023-03-26T04:30:49.709Z,7.60
2023-03-26T04:34:17.292Z,7.60
2023-03-26T04:37:40.640Z,7.60
2023-03-26T04:41:04.437Z,7.60
2023-03-26T04:44:26.238Z,7.60
2023-03-26T04:47:49.370Z,7.60
2023-03-26T04:51:12.988Z,7.60
2023-03-26T04:54:34.662Z,7.50
2023-03-26T04:57:57.296Z,7.50
2023-03-26T05:01:19.010Z,7.50
2023-03-26T05:04:42.312Z,7.50
2023-03-26T05:08:04.048Z,7.50
2023-03-26T05:11:25.692Z,7.60
2023-03-26T05:14:47.279Z,7.50
2023-03-26T05:18:08.977Z,7.50
2023-03-26T05:21:32.002Z,7.50
2023-03-26T05:24:53.631Z,7.50
2023-03-26T05:28:16.980Z,7.50
2023-03-26T05:31:38.585Z,7.40
2023-03-26T05:35:00.360Z,7.40
2023-03-26T05:38:23.355Z,7.50
2023-03-26T05:41:44.959Z,7.50
2023-03-26T05:45:07.405Z,7.50
2023-03-26T05:48:29.034Z,7.50
2023-03-26T05:51:50.639Z,7.60
2023-03-26T05:55:13.580Z,7.60
2023-03-26T05:58:41.028Z,7.60
2023-03-26T06:02:11.858Z,7.70
2023-03-26T06:05:44.642Z,7.70
2023-03-26T06:09:08.400Z,7.60
2023-03-26T06:12:39.102Z,7.70
2023-03-26T06:16:01.713Z,7.80
2023-03-26T06:19:23.508Z,7.90
2023-03-26T06:22:45.094Z,7.90
2023-03-26T06:26:06.800Z,7.90
2023-03-26T06:29:39.996Z,8.00
2023-03-26T06:33:13.000Z,8.00
2023-03-26T06:36:36.445Z,8.10
2023-03-26T06:40:07.115Z,8.20
2023-03-26T06:43:34.284Z,8.20
2023-03-26T06:46:58.614Z,8.20
2023-03-26T06:50:26.661Z,8.30
2023-03-26T06:53:51.221Z,8.30
2023-03-26T06:57:13.312Z,8.30
2023-03-26T07:00:35.046Z,8.30
2023-03-26T07:03:59.926Z,8.20
2023-03-26T07:07:21.877Z,8.10
2023-03-26T07:10:43.527Z,8.10
2023-03-26T07:14:05.130Z,8.20
2023-03-26T07:17:26.769Z,8.20
2023-03-26T07:20:50.317Z,8.20
2023-03-26T07:24:12.460Z,8.20
2023-03-26T07:27:36.298Z,8.20
2023-03-26T07:31:04.895Z,8.10
2023-03-26T07:34:34.022Z,8.10
2023-03-26T07:38:02.661Z,8.00
2023-03-26T07:41:28.832Z,7.90
2023-03-26T07:44:55.430Z,7.90
2023-03-26T07:48:18.899Z,7.90
2023-03-26T07:51:40.700Z,7.80
2023-03-26T07:55:04.228Z,7.80
2023-03-26T07:58:38.016Z,7.80
2023-03-26T08:02:21.747Z,7.60
2023-03-26T08:05:51.262Z,7.60
2023-03-26T08:09:23.079Z,7.60
2023-03-26T08:12:51.880Z,7.60
2023-03-26T08:16:16.824Z,7.50
2023-03-26T08:19:43.584Z,7.50
2023-03-26T08:23:08.269Z,7.50
2023-03-26T08:26:34.831Z,7.40
2023-03-26T08:30:00.368Z,7.50
2023-03-26T08:33:22.613Z,7.70
2023-03-26T08:36:44.244Z,7.70
2023-03-26T08:40:06.565Z,7.70
2023-03-26T08:43:35.754Z,7.70
2023-03-26T08:47:04.677Z,7.70
2023-03-26T08:50:34.223Z,7.80
2023-03-26T08:54:14.407Z,7.90
2023-03-26T08:57:54.458Z,7.90
2023-03-26T09:01:34.516Z,8.00
2023-03-26T09:05:06.536Z,8.10
2023-03-26T09:09:01.398Z,8.30
2023-03-26T09:12:38.906Z,8.50
2023-03-26T09:16:30.792Z,8.80
2023-03-26T09:20:07.307Z,9.30
2023-03-26T09:23:45.432Z,9.80
2023-03-26T09:27:21.660Z,10.40
2023-03-26T09:31:12.320Z,10.60
2023-03-26T09:34:42.503Z,10.50
2023-03-26T09:38:11.268Z,10.30
2023-03-26T09:41:41.374Z,10.60
2023-03-26T09:45:16.474Z,12.00
2023-03-26T09:48:48.301Z,13.40
2023-03-26T09:52:21.590Z,14.40
2023-03-26T09:56:04.152Z,14.60
2023-03-26T09:59:35.839Z,14.40
2023-03-26T10:03:07.359Z,14.50
2023-03-26T10:06:41.681Z,14.70
2023-03-26T10:10:07.181Z,14.80
2023-03-26T10:13:33.703Z,14.40
2023-03-26T10:17:00.201Z,14.00
2023-03-26T10:20:28.962Z,13.50
2023-03-26T10:24:01.562Z,13.20
2023-03-26T10:27:36.417Z,13.40
2023-03-26T10:31:06.875Z,13.70
2023-03-26T10:34:44.565Z,14.60
2023-03-26T10:38:12.268Z,15.10
2023-03-26T10:41:40.988Z,15.90
2023-03-26T10:45:13.842Z,15.70
2023-03-26T10:48:48.884Z,15.30
2023-03-26T10:52:12.921Z,15.20
2023-03-26T10:55:37.231Z,14.90
2023-03-26T10:59:00.527Z,14.70
2023-03-26T11:02:30.163Z,14.80
2023-03-26T11:05:58.708Z,14.30
2023-03-26T11:09:28.985Z,13.70
2023-03-26T11:12:52.721Z,13.60
2023-03-26T11:16:18.726Z,13.80
2023-03-26T11:19:43.740Z,14.30
2023-03-26T11:23:23.601Z,14.40
2023-03-26T11:26:50.841Z,14.30
2023-03-26T11:30:17.974Z,14.10
2023-03-26T11:33:45.142Z,14.00
2023-03-26T11:37:13.297Z,14.10
2023-03-26T11:40:36.798Z,13.80
2023-03-26T11:44:01.679Z,13.40
2023-03-26T11:47:29.839Z,13.40
2023-03-26T11:50:53.413Z,13.70
2023-03-26T11:54:15.216Z,14.00
2023-03-26T11:57:38.000Z,14.10
2023-03-26T12:01:04.754Z,14.10
2023-03-26T12:04:29.374Z,14.00
2023-03-26T12:07:53.830Z,13.80
2023-03-26T12:11:18.629Z,13.80
2023-03-26T12:14:42.218Z,14.00
2023-03-26T12:18:18.722Z,14.10
2023-03-26T12:21:45.690Z,14.30
2023-03-26T12:25:17.181Z,14.50
2023-03-26T12:28:43.737Z,14.60
2023-03-26T12:32:06.945Z,14.30
2023-03-26T12:35:29.618Z,13.90
2023-03-26T12:39:43.637Z,13.90
2023-03-26T12:44:48.895Z,14.00
2023-03-26T12:47:56.233Z,13.80
2023-03-26T12:50:06.052Z,14.00
2023-03-26T12:53:33.598Z,14.40
2023-03-26T12:57:12.163Z,14.60
2023-03-26T13:00:40.565Z,14.70
2023-03-26T13:04:17.164Z,14.40
2023-03-26T13:07:51.298Z,14.30
2023-03-26T13:11:20.480Z,14.40
2023-03-26T13:15:03.270Z,14.70
2023-03-26T13:18:30.659Z,14.80
2023-03-26T13:21:58.150Z,14.80
2023-03-26T13:25:28.412Z,14.80
2023-03-26T13:28:53.482Z,14.90
2023-03-26T13:32:23.173Z,14.80
2023-03-26T13:35:48.291Z,14.70
2023-03-26T13:39:15.518Z,14.70
2023-03-26T13:42:40.614Z,14.80
2023-03-26T13:46:07.293Z,15.00
2023-03-26T13:49:32.826Z,15.00
2023-03-26T13:52:55.995Z,14.90
2023-03-26T13:56:19.911Z,14.90
2023-03-26T13:59:44.024Z,14.80
2023-03-26T14:03:10.546Z,14.80
2023-03-26T14:06:39.302Z,14.60
2023-03-26T14:10:03.292Z,14.50
2023-03-26T14:13:28.591Z,14.30
2023-03-26T14:16:53.766Z,13.90
2023-03-26T14:20:35.144Z,13.60
2023-03-26T14:24:23.521Z,13.40
2023-03-26T14:27:51.099Z,13.10
2023-03-26T14:31:24.831Z,12.80
2023-03-26T14:34:57.978Z,12.60
2023-03-26T14:38:33.662Z,12.30
2023-03-26T14:42:00.200Z,11.50
2023-03-26T14:45:30.458Z,10.90
2023-03-26T14:49:12.631Z,10.50
2023-03-26T14:52:40.541Z,10.20
2023-03-26T14:56:19.994Z,9.80
2023-03-26T15:00:00.212Z,9.70
2023-03-26T15:03:59.638Z,9.70
2023-03-26T15:07:27.628Z,9.90
2023-03-26T15:11:18.093Z,10.10
2023-03-26T15:14:48.924Z,10.20
2023-03-26T15:18:31.686Z,10.30
2023-03-26T15:22:10.941Z,10.40
2023-03-26T15:25:45.850Z,10.40
2023-03-26T15:29:17.162Z,10.30
2023-03-26T15:32:56.542Z,10.30
2023-03-26T15:36:36.415Z,10.10
2023-03-26T15:40:03.722Z,10.00
2023-03-26T15:43:29.772Z,9.80
2023-03-26T15:46:58.072Z,9.70
2023-03-26T15:50:30.958Z,9.50
2023-03-26T15:53:54.643Z,9.20
2023-03-26T15:57:21.326Z,9.00
2023-03-26T16:00:51.639Z,8.70
2023-03-26T16:04:18.034Z,8.60
2023-03-26T16:07:47.955Z,8.50
2023-03-26T16:11:09.799Z,8.40
2023-03-26T16:14:41.614Z,8.40
2023-03-26T16:18:20.978Z,8.40
2023-03-26T16:21:53.214Z,8.60
2023-03-26T16:25:27.147Z,8.60
2023-03-26T16:29:00.188Z,8.60
2023-03-26T16:32:25.226Z,8.60
2023-03-26T16:36:02.072Z,8.50
2023-03-26T16:39:37.191Z,8.40
2023-03-26T16:43:03.703Z,8.30
2023-03-26T16:46:36.419Z,8.20
2023-03-26T16:50:07.565Z,8.10
2023-03-26T16:53:36.511Z,8.00
2023-03-26T16:57:07.763Z,7.90
2023-03-26T17:00:37.360Z,7.90
2023-03-26T17:04:00.261Z,7.80
2023-03-26T17:07:24.004Z,7.80
2023-03-26T17:10:47.445Z,7.80
2023-03-26T17:14:19.659Z,7.80
2023-03-26T17:17:55.448Z,7.70
2023-03-26T17:21:19.568Z,7.70
2023-03-26T17:24:44.407Z,7.60
2023-03-26T17:28:14.097Z,7.60
2023-03-26T17:31:40.086Z,7.60
2023-03-26T17:35:01.964Z,7.50
2023-03-26T17:38:54.400Z,7.50
2023-03-26T17:42:24.754Z,7.50
2023-03-26T17:45:46.406Z,7.40
2023-03-26T17:49:27.988Z,7.40
2023-03-26T17:52:55.720Z,7.40
2023-03-26T17:56:24.341Z,7.30
2023-03-26T17:59:48.051Z,7.30
2023-03-26T18:03:14.022Z,7.20
2023-03-26T18:06:44.466Z,7.20
2023-03-26T18:10:16.571Z,7.10
2023-03-26T18:13:48.771Z,7.10
2023-03-26T18:17:10.523Z,7.00
2023-03-26T18:20:35.303Z,7.00
2023-03-26T18:23:59.553Z,6.90
2023-03-26T18:27:22.884Z,6.80
2023-03-26T18:30:48.480Z,6.80
2023-03-26T18:34:13.382Z,6.70
2023-03-26T18:37:35.890Z,6.70
2023-03-26T18:40:58.934Z,6.70
2023-03-26T18:44:21.176Z,6.70
2023-03-26T18:47:43.179Z,6.70
2023-03-26T18:51:06.013Z,6.80
2023-03-26T18:54:30.755Z,6.70
2023-03-26T18:57:54.097Z,6.70
2023-03-26T19:01:25.051Z,6.80
2023-03-26T19:04:52.996Z,6.80
2023-03-26T19:08:16.322Z,6.90
2023-03-26T19:11:41.251Z,6.90
2023-03-26T19:15:06.132Z,6.90
2023-03-26T19:18:36.016Z,6.90
2023-03-26T19:21:59.734Z,6.90
2023-03-26T19:25:22.213Z,6.90
2023-03-26T19:28:47.839Z,6.90
2023-03-26T19:32:29.848Z,6.90
2023-03-26T19:35:53.756Z,6.90
2023-03-26T19:39:21.696Z,6.90
2023-03-26T19:42:49.150Z,6.90
2023-03-26T19:46:12.826Z,6.90
2023-03-26T19:49:47.555Z,6.90
2023-03-26T19:53:17.278Z,6.90
2023-03-26T19:56:40.356Z,6.80
2023-03-26T20:00:02.435Z,6.80
2023-03-26T20:03:29.034Z,6.70
2023-03-26T20:06:52.158Z,6.70
2023-03-26T20:10:13.890Z,6.60
2023-03-26T20:13:35.708Z,6.40
2023-03-26T20:16:57.435Z,6.40
2023-03-26T20:20:19.211Z,6.40
2023-03-26T20:23:52.510Z,6.30
2023-03-26T20:27:14.737Z,6.30
2023-03-26T20:30:37.769Z,6.10
2023-03-26T20:33:59.715Z,6.10
2023-03-26T20:37:22.158Z,6.00
2023-03-26T20:40:45.205Z,6.00
2023-03-26T20:44:11.308Z,5.90
2023-03-26T20:47:32.951Z,5.80
2023-03-26T20:50:54.542Z,5.80
2023-03-26T20:54:16.980Z,5.80
2023-03-26T20:57:40.370Z,5.80
2023-03-26T21:01:02.481Z,5.70
2023-03-26T21:04:24.280Z,5.70
2023-03-26T21:07:46.587Z,5.70
2023-03-26T21:11:26.896Z,5.60
2023-03-26T21:14:51.061Z,5.60
2023-03-26T21:21:52.425Z,5.70
2023-03-26T21:25:18.939Z,5.70
2023-03-26T21:28:43.713Z,5.70
2023-03-26T21:32:09.352Z,5.80
2023-03-26T21:35:35.708Z,5.90
2023-03-26T21:38:57.816Z,6.00
2023-03-26T21:42:19.660Z,6.00
2023-03-26T21:45:41.735Z,6.10
2023-03-26T21:49:09.719Z,6.20
2023-03-26T21:52:35.737Z,6.30
2023-03-26T21:56:01.112Z,6.30
2023-03-26T21:59:33.852Z,6.30
2023-03-26T22:03:02.369Z,6.40
2023-03-26T22:06:29.276Z,6.40
2023-03-26T22:09:54.580Z,6.40
2023-03-26T22:13:16.867Z,6.40
2023-03-26T22:16:38.918Z,6.30
2023-03-26T22:20:02.643Z,6.40
2023-03-26T22:23:34.471Z,6.30
2023-03-26T22:26:57.485Z,6.30
2023-03-26T22:30:19.246Z,6.20
2023-03-26T22:33:41.490Z,6.20
2023-03-26T22:37:03.462Z,6.20
2023-03-26T22:40:26.569Z,6.10
2023-03-26T22:43:49.263Z,6.10
2023-03-26T22:47:11.146Z,6.10
2023-03-26T22:50:35.202Z,6.10
2023-03-26T22:54:00.145Z,6.10
2023-03-26T22:57:24.562Z,6.20
2023-03-26T23:00:46.315Z,6.20
2023-03-26T23:04:09.565Z,6.20
2023-03-26T23:07:33.764Z,6.20
2023-03-26T23:10:55.800Z,6.20
2023-03-26T23:14:18.880Z,6.20
2023-03-26T23:17:40.725Z,6.20
2023-03-26T23:21:06.232Z,6.20
2023-03-26T23:24:33.764Z,6.20
2023-03-26T23:27:55.369Z,6.20
2023-03-26T23:31:18.554Z,6.20
2023-03-26T23:34:40.204Z,6.10
2023-03-26T23:38:13.986Z,6.20
2023-03-26T23:41:36.438Z,6.10
2023-03-26T23:44:58.083Z,6.10
2023-03-26T23:48:23.848Z,6.10
2023-03-26T23:51:47.580Z,6.10
2023-03-26T23:55:10.792Z,6.20
2023-03-26T23:58:32.728Z,6.20
